sensor_id;sensor_type;location;lat;lon;timestamp;temperature;humidity
22544;DHT22;11438;52.044;8.716;2023-08-17T00:02:14;22.90;97.20
22544;DHT22;11438;52.044;8.716;2023-08-17T00:04:40;22.90;97.40
22544;DHT22;11438;52.044;8.716;2023-08-17T00:07:06;22.90;97.70
22544;DHT22;11438;52.044;8.716;2023-08-17T00:09:32;22.90;97.80
22544;DHT22;11438;52.044;8.716;2023-08-17T00:11:58;22.80;97.90
22544;DHT22;11438;52.044;8.716;2023-08-17T00:14:24;22.80;98.00
22544;DHT22;11438;52.044;8.716;2023-08-17T00:16:50;22.70;98.10
22544;DHT22;11438;52.044;8.716;2023-08-17T00:19:16;22.60;98.10
22544;DHT22;11438;52.044;8.716;2023-08-17T00:21:44;22.60;98.30
22544;DHT22;11438;52.044;8.716;2023-08-17T00:24:09;22.50;98.40
22544;DHT22;11438;52.044;8.716;2023-08-17T00:26:35;22.50;98.40
22544;DHT22;11438;52.044;8.716;2023-08-17T00:29:00;22.40;98.60
22544;DHT22;11438;52.044;8.716;2023-08-17T00:31:26;22.40;98.60
22544;DHT22;11438;52.044;8.716;2023-08-17T00:33:51;22.40;98.70
22544;DHT22;11438;52.044;8.716;2023-08-17T00:36:17;22.30;98.80
22544;DHT22;11438;52.044;8.716;2023-08-17T00:38:42;22.30;98.90
22544;DHT22;11438;52.044;8.716;2023-08-17T00:41:08;22.30;99.00
22544;DHT22;11438;52.044;8.716;2023-08-17T00:43:34;22.30;98.90
22544;DHT22;11438;52.044;8.716;2023-08-17T00:45:59;22.20;99.00
22544;DHT22;11438;52.044;8.716;2023-08-17T00:48:26;22.20;99.10
22544;DHT22;11438;52.044;8.716;2023-08-17T00:50:54;22.20;99.20
22544;DHT22;11438;52.044;8.716;2023-08-17T00:53:21;22.20;99.30
22544;DHT22;11438;52.044;8.716;2023-08-17T00:55:47;22.10;99.30
22544;DHT22;11438;52.044;8.716;2023-08-17T00:58:14;22.20;99.40
22544;DHT22;11438;52.044;8.716;2023-08-17T01:00:40;22.10;99.60
22544;DHT22;11438;52.044;8.716;2023-08-17T01:03:05;22.10;99.60
22544;DHT22;11438;52.044;8.716;2023-08-17T01:05:31;22.10;99.60
22544;DHT22;11438;52.044;8.716;2023-08-17T01:07:58;22.00;99.70
22544;DHT22;11438;52.044;8.716;2023-08-17T01:10:29;22.00;99.80
22544;DHT22;11438;52.044;8.716;2023-08-17T01:13:05;21.90;99.90
22544;DHT22;11438;52.044;8.716;2023-08-17T01:15:37;21.90;99.90
22544;DHT22;11438;52.044;8.716;2023-08-17T01:18:21;21.80;99.90
22544;DHT22;11438;52.044;8.716;2023-08-17T01:20:49;21.80;99.90
22544;DHT22;11438;52.044;8.716;2023-08-17T01:23:14;21.70;99.90
22544;DHT22;11438;52.044;8.716;2023-08-17T01:25:40;21.70;99.90
22544;DHT22;11438;52.044;8.716;2023-08-17T01:28:06;21.70;99.90
22544;DHT22;11438;52.044;8.716;2023-08-17T01:30:39;21.60;99.90
22544;DHT22;11438;52.044;8.716;2023-08-17T01:33:10;21.60;99.90
22544;DHT22;11438;52.044;8.716;2023-08-17T01:35:50;21.60;99.90
22544;DHT22;11438;52.044;8.716;2023-08-17T01:38:20;21.60;99.90
22544;DHT22;11438;52.044;8.716;2023-08-17T01:40:48;21.60;99.90
22544;DHT22;11438;52.044;8.716;2023-08-17T01:43:16;21.60;99.90
22544;DHT22;11438;52.044;8.716;2023-08-17T01:45:42;21.60;99.90
22544;DHT22;11438;52.044;8.716;2023-08-17T01:48:08;21.60;99.90
22544;DHT22;11438;52.044;8.716;2023-08-17T01:50:33;21.50;99.90
22544;DHT22;11438;52.044;8.716;2023-08-17T01:52:59;21.50;99.90
22544;DHT22;11438;52.044;8.716;2023-08-17T01:55:24;21.50;99.90
22544;DHT22;11438;52.044;8.716;2023-08-17T01:57:50;21.40;99.90
22544;DHT22;11438;52.044;8.716;2023-08-17T02:00:15;21.40;99.90
22544;DHT22;11438;52.044;8.716;2023-08-17T02:02:41;21.40;99.90
22544;DHT22;11438;52.044;8.716;2023-08-17T02:05:08;21.40;99.90
22544;DHT22;11438;52.044;8.716;2023-08-17T02:07:33;21.40;99.90
22544;DHT22;11438;52.044;8.716;2023-08-17T02:09:59;21.30;99.90
22544;DHT22;11438;52.044;8.716;2023-08-17T02:12:24;21.30;99.90
22544;DHT22;11438;52.044;8.716;2023-08-17T02:14:50;21.30;99.90
22544;DHT22;11438;52.044;8.716;2023-08-17T02:17:15;21.30;99.90
22544;DHT22;11438;52.044;8.716;2023-08-17T02:19:42;21.30;99.90
22544;DHT22;11438;52.044;8.716;2023-08-17T02:22:09;21.30;99.90
22544;DHT22;11438;52.044;8.716;2023-08-17T02:24:35;21.30;99.90
22544;DHT22;11438;52.044;8.716;2023-08-17T02:27:00;21.30;99.90
22544;DHT22;11438;52.044;8.716;2023-08-17T02:29:26;21.30;99.90
22544;DHT22;11438;52.044;8.716;2023-08-17T02:31:51;21.30;99.90
22544;DHT22;11438;52.044;8.716;2023-08-17T02:34:17;21.30;99.90
22544;DHT22;11438;52.044;8.716;2023-08-17T02:36:42;21.30;99.90
22544;DHT22;11438;52.044;8.716;2023-08-17T02:39:08;21.30;99.90
22544;DHT22;11438;52.044;8.716;2023-08-17T02:41:34;21.30;99.90
22544;DHT22;11438;52.044;8.716;2023-08-17T02:44:00;21.30;99.90
22544;DHT22;11438;52.044;8.716;2023-08-17T02:46:26;21.30;99.90
22544;DHT22;11438;52.044;8.716;2023-08-17T02:48:51;21.30;99.90
22544;DHT22;11438;52.044;8.716;2023-08-17T02:51:18;21.30;99.90
22544;DHT22;11438;52.044;8.716;2023-08-17T02:53:43;21.30;99.90
22544;DHT22;11438;52.044;8.716;2023-08-17T02:56:09;21.30;99.90
22544;DHT22;11438;52.044;8.716;2023-08-17T02:58:38;21.30;99.90
22544;DHT22;11438;52.044;8.716;2023-08-17T03:01:06;21.30;99.90
22544;DHT22;11438;52.044;8.716;2023-08-17T03:03:32;21.30;99.90
22544;DHT22;11438;52.044;8.716;2023-08-17T03:05:57;21.30;99.90
22544;DHT22;11438;52.044;8.716;2023-08-17T03:08:23;21.20;99.90
22544;DHT22;11438;52.044;8.716;2023-08-17T03:10:48;21.20;99.90
22544;DHT22;11438;52.044;8.716;2023-08-17T03:13:14;21.20;99.90
22544;DHT22;11438;52.044;8.716;2023-08-17T03:15:40;21.20;99.90
22544;DHT22;11438;52.044;8.716;2023-08-17T03:18:06;21.20;99.90
22544;DHT22;11438;52.044;8.716;2023-08-17T03:20:31;21.20;99.90
22544;DHT22;11438;52.044;8.716;2023-08-17T03:22:57;21.20;99.90
22544;DHT22;11438;52.044;8.716;2023-08-17T03:25:22;21.10;99.90
22544;DHT22;11438;52.044;8.716;2023-08-17T03:27:48;21.10;99.90
22544;DHT22;11438;52.044;8.716;2023-08-17T03:30:13;21.10;99.90
22544;DHT22;11438;52.044;8.716;2023-08-17T03:32:39;21.10;99.90
22544;DHT22;11438;52.044;8.716;2023-08-17T03:35:05;21.10;99.90
22544;DHT22;11438;52.044;8.716;2023-08-17T03:37:30;21.10;99.90
22544;DHT22;11438;52.044;8.716;2023-08-17T03:39:56;21.10;99.90
22544;DHT22;11438;52.044;8.716;2023-08-17T03:42:21;21.10;99.90
22544;DHT22;11438;52.044;8.716;2023-08-17T03:44:47;21.10;99.90
22544;DHT22;11438;52.044;8.716;2023-08-17T03:47:12;21.10;99.90
22544;DHT22;11438;52.044;8.716;2023-08-17T03:49:39;21.10;99.90
22544;DHT22;11438;52.044;8.716;2023-08-17T03:52:05;21.10;99.90
22544;DHT22;11438;52.044;8.716;2023-08-17T03:54:31;21.10;99.90
22544;DHT22;11438;52.044;8.716;2023-08-17T03:56:56;21.10;99.90
22544;DHT22;11438;52.044;8.716;2023-08-17T03:59:22;21.10;99.90
22544;DHT22;11438;52.044;8.716;2023-08-17T04:01:47;21.20;99.90
22544;DHT22;11438;52.044;8.716;2023-08-17T04:04:13;21.20;99.90
22544;DHT22;11438;52.044;8.716;2023-08-17T04:06:38;21.10;99.90
22544;DHT22;11438;52.044;8.716;2023-08-17T04:09:04;21.10;99.90
22544;DHT22;11438;52.044;8.716;2023-08-17T04:11:30;21.10;99.90
22544;DHT22;11438;52.044;8.716;2023-08-17T04:13:55;21.10;99.90
22544;DHT22;11438;52.044;8.716;2023-08-17T04:16:21;21.10;99.90
22544;DHT22;11438;52.044;8.716;2023-08-17T04:18:47;21.10;99.90
22544;DHT22;11438;52.044;8.716;2023-08-17T04:21:12;21.10;99.90
22544;DHT22;11438;52.044;8.716;2023-08-17T04:23:38;21.10;99.90
22544;DHT22;11438;52.044;8.716;2023-08-17T04:26:03;21.00;99.90
22544;DHT22;11438;52.044;8.716;2023-08-17T04:28:29;21.00;99.90
22544;DHT22;11438;52.044;8.716;2023-08-17T04:30:54;21.00;99.90
22544;DHT22;11438;52.044;8.716;2023-08-17T04:33:20;21.00;99.90
22544;DHT22;11438;52.044;8.716;2023-08-17T04:35:48;21.00;99.90
22544;DHT22;11438;52.044;8.716;2023-08-17T04:38:14;21.00;99.90
22544;DHT22;11438;52.044;8.716;2023-08-17T04:40:39;21.00;99.90
22544;DHT22;11438;52.044;8.716;2023-08-17T04:43:05;21.00;99.90
22544;DHT22;11438;52.044;8.716;2023-08-17T04:45:30;21.00;99.90
22544;DHT22;11438;52.044;8.716;2023-08-17T04:47:56;21.00;99.90
22544;DHT22;11438;52.044;8.716;2023-08-17T04:50:21;21.00;99.90
22544;DHT22;11438;52.044;8.716;2023-08-17T04:52:47;21.00;99.90
22544;DHT22;11438;52.044;8.716;2023-08-17T04:55:13;21.00;99.90
22544;DHT22;11438;52.044;8.716;2023-08-17T04:57:39;21.00;99.90
22544;DHT22;11438;52.044;8.716;2023-08-17T05:00:05;21.00;99.90
22544;DHT22;11438;52.044;8.716;2023-08-17T05:02:35;21.00;99.90
22544;DHT22;11438;52.044;8.716;2023-08-17T05:05:05;21.00;99.90
22544;DHT22;11438;52.044;8.716;2023-08-17T05:07:32;21.00;99.90
22544;DHT22;11438;52.044;8.716;2023-08-17T05:09:57;21.00;99.90
22544;DHT22;11438;52.044;8.716;2023-08-17T05:12:23;21.00;99.90
22544;DHT22;11438;52.044;8.716;2023-08-17T05:14:48;21.00;99.90
22544;DHT22;11438;52.044;8.716;2023-08-17T05:17:14;21.00;99.90
22544;DHT22;11438;52.044;8.716;2023-08-17T05:19:39;21.00;99.90
22544;DHT22;11438;52.044;8.716;2023-08-17T05:22:10;21.00;99.90
22544;DHT22;11438;52.044;8.716;2023-08-17T05:24:36;21.00;99.90
22544;DHT22;11438;52.044;8.716;2023-08-17T05:27:01;21.00;99.90
22544;DHT22;11438;52.044;8.716;2023-08-17T05:29:27;21.00;99.90
22544;DHT22;11438;52.044;8.716;2023-08-17T05:31:52;21.00;99.90
22544;DHT22;11438;52.044;8.716;2023-08-17T05:34:18;21.00;99.90
22544;DHT22;11438;52.044;8.716;2023-08-17T05:36:43;21.00;99.90
22544;DHT22;11438;52.044;8.716;2023-08-17T05:39:09;21.00;99.90
22544;DHT22;11438;52.044;8.716;2023-08-17T05:41:35;21.00;99.90
22544;DHT22;11438;52.044;8.716;2023-08-17T05:44:00;21.00;99.90
22544;DHT22;11438;52.044;8.716;2023-08-17T05:46:26;21.00;99.90
22544;DHT22;11438;52.044;8.716;2023-08-17T05:48:51;21.10;99.90
22544;DHT22;11438;52.044;8.716;2023-08-17T05:51:17;21.10;99.90
22544;DHT22;11438;52.044;8.716;2023-08-17T05:53:42;21.10;99.90
22544;DHT22;11438;52.044;8.716;2023-08-17T05:56:08;21.10;99.90
22544;DHT22;11438;52.044;8.716;2023-08-17T05:58:33;21.10;99.90
22544;DHT22;11438;52.044;8.716;2023-08-17T06:01:06;21.10;99.90
22544;DHT22;11438;52.044;8.716;2023-08-17T06:03:33;21.10;99.90
22544;DHT22;11438;52.044;8.716;2023-08-17T06:05:59;21.10;99.90
22544;DHT22;11438;52.044;8.716;2023-08-17T06:08:24;21.10;99.90
22544;DHT22;11438;52.044;8.716;2023-08-17T06:10:50;21.10;99.90
22544;DHT22;11438;52.044;8.716;2023-08-17T06:13:15;21.20;99.90
22544;DHT22;11438;52.044;8.716;2023-08-17T06:15:41;21.10;99.90
22544;DHT22;11438;52.044;8.716;2023-08-17T06:18:06;21.20;99.90
22544;DHT22;11438;52.044;8.716;2023-08-17T06:20:32;21.20;99.90
22544;DHT22;11438;52.044;8.716;2023-08-17T06:22:57;21.20;99.90
22544;DHT22;11438;52.044;8.716;2023-08-17T06:25:23;21.20;99.90
22544;DHT22;11438;52.044;8.716;2023-08-17T06:27:49;21.20;99.90
22544;DHT22;11438;52.044;8.716;2023-08-17T06:30:15;21.20;99.90
22544;DHT22;11438;52.044;8.716;2023-08-17T06:32:41;21.30;99.90
22544;DHT22;11438;52.044;8.716;2023-08-17T06:35:07;21.20;99.90
22544;DHT22;11438;52.044;8.716;2023-08-17T06:37:33;21.30;99.90
22544;DHT22;11438;52.044;8.716;2023-08-17T06:39:58;21.30;99.90
22544;DHT22;11438;52.044;8.716;2023-08-17T06:42:24;21.30;99.90
22544;DHT22;11438;52.044;8.716;2023-08-17T06:44:49;21.30;99.90
22544;DHT22;11438;52.044;8.716;2023-08-17T06:47:15;21.30;99.90
22544;DHT22;11438;52.044;8.716;2023-08-17T06:49:40;21.40;99.90
22544;DHT22;11438;52.044;8.716;2023-08-17T06:52:06;21.40;99.90
22544;DHT22;11438;52.044;8.716;2023-08-17T06:54:31;21.30;99.90
22544;DHT22;11438;52.044;8.716;2023-08-17T06:56:58;21.40;99.90
22544;DHT22;11438;52.044;8.716;2023-08-17T06:59:23;21.40;99.90
22544;DHT22;11438;52.044;8.716;2023-08-17T07:01:49;21.40;99.90
22544;DHT22;11438;52.044;8.716;2023-08-17T07:04:14;21.40;99.90
22544;DHT22;11438;52.044;8.716;2023-08-17T07:06:40;21.50;99.90
22544;DHT22;11438;52.044;8.716;2023-08-17T07:09:06;21.50;99.90
22544;DHT22;11438;52.044;8.716;2023-08-17T07:11:32;21.50;99.90
22544;DHT22;11438;52.044;8.716;2023-08-17T07:13:58;21.50;99.90
22544;DHT22;11438;52.044;8.716;2023-08-17T07:16:23;21.50;99.90
22544;DHT22;11438;52.044;8.716;2023-08-17T07:18:49;21.50;99.90
22544;DHT22;11438;52.044;8.716;2023-08-17T07:21:15;21.50;99.90
22544;DHT22;11438;52.044;8.716;2023-08-17T07:23:44;21.50;99.90
22544;DHT22;11438;52.044;8.716;2023-08-17T07:26:10;21.50;99.90
22544;DHT22;11438;52.044;8.716;2023-08-17T07:28:35;21.50;99.90
22544;DHT22;11438;52.044;8.716;2023-08-17T07:31:01;21.50;99.90
22544;DHT22;11438;52.044;8.716;2023-08-17T07:33:26;21.50;99.90
22544;DHT22;11438;52.044;8.716;2023-08-17T07:35:52;21.50;99.90
22544;DHT22;11438;52.044;8.716;2023-08-17T07:38:19;21.50;99.90
22544;DHT22;11438;52.044;8.716;2023-08-17T07:40:45;21.50;99.90
22544;DHT22;11438;52.044;8.716;2023-08-17T07:43:10;21.50;99.90
22544;DHT22;11438;52.044;8.716;2023-08-17T07:45:36;21.50;99.90
22544;DHT22;11438;52.044;8.716;2023-08-17T07:48:01;21.50;99.90
22544;DHT22;11438;52.044;8.716;2023-08-17T07:50:27;21.50;99.90
22544;DHT22;11438;52.044;8.716;2023-08-17T07:52:52;21.50;99.90
22544;DHT22;11438;52.044;8.716;2023-08-17T07:55:18;21.50;99.90
22544;DHT22;11438;52.044;8.716;2023-08-17T07:57:43;21.60;99.90
22544;DHT22;11438;52.044;8.716;2023-08-17T08:00:09;21.60;99.90
22544;DHT22;11438;52.044;8.716;2023-08-17T08:02:35;21.60;99.90
22544;DHT22;11438;52.044;8.716;2023-08-17T08:05:00;21.70;99.90
22544;DHT22;11438;52.044;8.716;2023-08-17T08:07:26;21.70;99.90
22544;DHT22;11438;52.044;8.716;2023-08-17T08:09:51;21.80;99.90
22544;DHT22;11438;52.044;8.716;2023-08-17T08:12:17;21.80;99.90
22544;DHT22;11438;52.044;8.716;2023-08-17T08:14:42;21.90;99.90
22544;DHT22;11438;52.044;8.716;2023-08-17T08:17:08;22.00;99.90
22544;DHT22;11438;52.044;8.716;2023-08-17T08:19:34;22.00;99.90
22544;DHT22;11438;52.044;8.716;2023-08-17T08:22:00;22.10;99.90
22544;DHT22;11438;52.044;8.716;2023-08-17T08:24:26;22.10;99.90
22544;DHT22;11438;52.044;8.716;2023-08-17T08:26:56;22.20;99.90
22544;DHT22;11438;52.044;8.716;2023-08-17T08:29:22;22.20;99.90
22544;DHT22;11438;52.044;8.716;2023-08-17T08:31:47;22.20;99.90
22544;DHT22;11438;52.044;8.716;2023-08-17T08:34:13;22.30;99.90
22544;DHT22;11438;52.044;8.716;2023-08-17T08:36:38;22.30;99.90
22544;DHT22;11438;52.044;8.716;2023-08-17T08:39:04;22.30;99.90
22544;DHT22;11438;52.044;8.716;2023-08-17T08:41:30;22.30;99.90
22544;DHT22;11438;52.044;8.716;2023-08-17T08:43:56;22.40;99.90
22544;DHT22;11438;52.044;8.716;2023-08-17T08:46:22;22.40;99.90
22544;DHT22;11438;52.044;8.716;2023-08-17T08:48:50;22.40;99.90
22544;DHT22;11438;52.044;8.716;2023-08-17T08:51:25;22.40;99.90
22544;DHT22;11438;52.044;8.716;2023-08-17T08:53:59;22.40;99.90
22544;DHT22;11438;52.044;8.716;2023-08-17T08:56:28;22.50;99.90
22544;DHT22;11438;52.044;8.716;2023-08-17T08:58:58;22.50;99.90
22544;DHT22;11438;52.044;8.716;2023-08-17T09:01:24;22.50;99.90
22544;DHT22;11438;52.044;8.716;2023-08-17T09:03:50;22.50;99.90
22544;DHT22;11438;52.044;8.716;2023-08-17T09:06:16;22.50;99.90
22544;DHT22;11438;52.044;8.716;2023-08-17T09:08:43;22.50;99.90
22544;DHT22;11438;52.044;8.716;2023-08-17T09:11:10;22.50;99.90
22544;DHT22;11438;52.044;8.716;2023-08-17T09:13:36;22.50;99.90
22544;DHT22;11438;52.044;8.716;2023-08-17T09:16:01;22.50;99.90
22544;DHT22;11438;52.044;8.716;2023-08-17T09:18:27;22.50;99.90
22544;DHT22;11438;52.044;8.716;2023-08-17T09:20:53;22.50;99.90
22544;DHT22;11438;52.044;8.716;2023-08-17T09:23:21;22.50;99.90
22544;DHT22;11438;52.044;8.716;2023-08-17T09:25:48;22.60;99.90
22544;DHT22;11438;52.044;8.716;2023-08-17T09:28:15;22.60;99.90
22544;DHT22;11438;52.044;8.716;2023-08-17T09:30:58;22.60;99.90
22544;DHT22;11438;52.044;8.716;2023-08-17T09:33:25;22.60;99.90
22544;DHT22;11438;52.044;8.716;2023-08-17T09:35:53;22.60;99.90
22544;DHT22;11438;52.044;8.716;2023-08-17T09:38:19;22.60;99.90
22544;DHT22;11438;52.044;8.716;2023-08-17T09:40:45;22.60;99.90
22544;DHT22;11438;52.044;8.716;2023-08-17T09:43:11;22.60;99.90
22544;DHT22;11438;52.044;8.716;2023-08-17T09:45:37;22.60;99.90
22544;DHT22;11438;52.044;8.716;2023-08-17T09:48:04;22.60;99.90
22544;DHT22;11438;52.044;8.716;2023-08-17T09:50:30;22.70;99.90
22544;DHT22;11438;52.044;8.716;2023-08-17T09:52:57;22.70;99.90
22544;DHT22;11438;52.044;8.716;2023-08-17T09:55:23;22.70;99.90
22544;DHT22;11438;52.044;8.716;2023-08-17T09:57:52;22.70;99.90
22544;DHT22;11438;52.044;8.716;2023-08-17T10:00:20;22.70;99.90
22544;DHT22;11438;52.044;8.716;2023-08-17T10:02:49;22.70;99.90
22544;DHT22;11438;52.044;8.716;2023-08-17T10:05:19;22.70;99.90
22544;DHT22;11438;52.044;8.716;2023-08-17T10:07:54;22.70;99.90
22544;DHT22;11438;52.044;8.716;2023-08-17T10:10:23;22.70;99.90
22544;DHT22;11438;52.044;8.716;2023-08-17T10:13:09;22.70;99.90
22544;DHT22;11438;52.044;8.716;2023-08-17T10:16:03;22.60;99.90
22544;DHT22;11438;52.044;8.716;2023-08-17T10:18:45;22.60;99.90
22544;DHT22;11438;52.044;8.716;2023-08-17T10:21:27;22.60;99.90
22544;DHT22;11438;52.044;8.716;2023-08-17T10:23:53;22.60;99.90
22544;DHT22;11438;52.044;8.716;2023-08-17T10:26:20;22.60;99.90
22544;DHT22;11438;52.044;8.716;2023-08-17T10:28:46;22.60;99.90
22544;DHT22;11438;52.044;8.716;2023-08-17T10:31:14;22.50;99.90
22544;DHT22;11438;52.044;8.716;2023-08-17T10:33:40;22.50;99.90
22544;DHT22;11438;52.044;8.716;2023-08-17T10:36:09;22.50;99.90
22544;DHT22;11438;52.044;8.716;2023-08-17T10:38:34;22.50;99.90
22544;DHT22;11438;52.044;8.716;2023-08-17T10:41:14;22.50;99.90
22544;DHT22;11438;52.044;8.716;2023-08-17T10:43:59;22.50;99.90
22544;DHT22;11438;52.044;8.716;2023-08-17T10:46:36;22.50;99.90
22544;DHT22;11438;52.044;8.716;2023-08-17T10:49:06;22.50;99.90
22544;DHT22;11438;52.044;8.716;2023-08-17T10:51:33;22.50;99.90
22544;DHT22;11438;52.044;8.716;2023-08-17T10:54:01;22.50;99.90
22544;DHT22;11438;52.044;8.716;2023-08-17T10:56:28;22.50;99.90
22544;DHT22;11438;52.044;8.716;2023-08-17T10:58:54;22.50;99.90
22544;DHT22;11438;52.044;8.716;2023-08-17T11:01:36;22.60;99.90
22544;DHT22;11438;52.044;8.716;2023-08-17T11:04:16;22.60;99.90
22544;DHT22;11438;52.044;8.716;2023-08-17T11:06:45;22.60;99.90
22544;DHT22;11438;52.044;8.716;2023-08-17T11:09:10;22.60;99.90
22544;DHT22;11438;52.044;8.716;2023-08-17T11:11:37;22.60;99.90
22544;DHT22;11438;52.044;8.716;2023-08-17T11:14:02;22.60;99.90
22544;DHT22;11438;52.044;8.716;2023-08-17T11:16:28;22.60;99.90
22544;DHT22;11438;52.044;8.716;2023-08-17T11:18:53;22.60;99.90
22544;DHT22;11438;52.044;8.716;2023-08-17T11:21:22;22.60;99.90
22544;DHT22;11438;52.044;8.716;2023-08-17T11:23:48;22.60;99.90
22544;DHT22;11438;52.044;8.716;2023-08-17T11:26:18;22.60;99.90
22544;DHT22;11438;52.044;8.716;2023-08-17T11:28:44;22.60;99.90
22544;DHT22;11438;52.044;8.716;2023-08-17T11:31:11;22.60;99.90
22544;DHT22;11438;52.044;8.716;2023-08-17T11:33:38;22.60;99.90
22544;DHT22;11438;52.044;8.716;2023-08-17T11:36:05;22.60;99.90
22544;DHT22;11438;52.044;8.716;2023-08-17T11:38:36;22.60;99.90
22544;DHT22;11438;52.044;8.716;2023-08-17T11:41:02;22.60;99.90
22544;DHT22;11438;52.044;8.716;2023-08-17T11:43:28;22.50;99.90
22544;DHT22;11438;52.044;8.716;2023-08-17T11:45:57;22.60;99.90
22544;DHT22;11438;52.044;8.716;2023-08-17T11:48:24;22.50;99.90
22544;DHT22;11438;52.044;8.716;2023-08-17T11:50:50;22.50;99.90
22544;DHT22;11438;52.044;8.716;2023-08-17T11:53:16;22.60;99.90
22544;DHT22;11438;52.044;8.716;2023-08-17T11:55:41;22.60;99.90
22544;DHT22;11438;52.044;8.716;2023-08-17T11:58:07;22.60;99.90
22544;DHT22;11438;52.044;8.716;2023-08-17T12:00:39;22.60;99.90
22544;DHT22;11438;52.044;8.716;2023-08-17T12:03:05;22.60;99.90
22544;DHT22;11438;52.044;8.716;2023-08-17T12:05:31;22.60;99.90
22544;DHT22;11438;52.044;8.716;2023-08-17T12:07:57;22.60;99.90
22544;DHT22;11438;52.044;8.716;2023-08-17T12:10:24;22.70;99.90
22544;DHT22;11438;52.044;8.716;2023-08-17T12:12:49;22.70;99.90
22544;DHT22;11438;52.044;8.716;2023-08-17T12:15:18;22.70;99.90
22544;DHT22;11438;52.044;8.716;2023-08-17T12:17:48;22.70;99.90
22544;DHT22;11438;52.044;8.716;2023-08-17T12:20:18;22.70;99.90
22544;DHT22;11438;52.044;8.716;2023-08-17T12:22:44;22.70;99.90
22544;DHT22;11438;52.044;8.716;2023-08-17T12:25:10;22.70;99.90
22544;DHT22;11438;52.044;8.716;2023-08-17T12:27:36;22.70;99.90
22544;DHT22;11438;52.044;8.716;2023-08-17T12:30:02;22.70;99.90
22544;DHT22;11438;52.044;8.716;2023-08-17T12:32:27;22.70;99.90
22544;DHT22;11438;52.044;8.716;2023-08-17T12:34:53;22.70;99.90
22544;DHT22;11438;52.044;8.716;2023-08-17T12:37:19;22.70;99.90
22544;DHT22;11438;52.044;8.716;2023-08-17T12:39:46;22.70;99.90
22544;DHT22;11438;52.044;8.716;2023-08-17T12:42:13;22.60;99.90
22544;DHT22;11438;52.044;8.716;2023-08-17T12:44:39;22.60;99.90
22544;DHT22;11438;52.044;8.716;2023-08-17T12:47:05;22.60;99.90
22544;DHT22;11438;52.044;8.716;2023-08-17T12:49:30;22.60;99.90
22544;DHT22;11438;52.044;8.716;2023-08-17T12:51:56;22.60;99.90
22544;DHT22;11438;52.044;8.716;2023-08-17T12:54:21;22.60;99.90
22544;DHT22;11438;52.044;8.716;2023-08-17T12:56:47;22.50;99.90
22544;DHT22;11438;52.044;8.716;2023-08-17T12:59:12;22.50;99.90
22544;DHT22;11438;52.044;8.716;2023-08-17T13:01:38;22.50;99.90
22544;DHT22;11438;52.044;8.716;2023-08-17T13:04:05;22.50;99.90
22544;DHT22;11438;52.044;8.716;2023-08-17T13:06:31;22.50;99.90
22544;DHT22;11438;52.044;8.716;2023-08-17T13:08:56;22.50;99.90
22544;DHT22;11438;52.044;8.716;2023-08-17T13:11:22;22.50;99.90
22544;DHT22;11438;52.044;8.716;2023-08-17T13:13:47;22.50;99.90
22544;DHT22;11438;52.044;8.716;2023-08-17T13:16:13;22.50;99.90
22544;DHT22;11438;52.044;8.716;2023-08-17T13:18:39;22.40;99.90
22544;DHT22;11438;52.044;8.716;2023-08-17T13:21:04;22.40;99.90
22544;DHT22;11438;52.044;8.716;2023-08-17T13:23:30;22.40;99.90
22544;DHT22;11438;52.044;8.716;2023-08-17T13:25:56;22.50;99.90
22544;DHT22;11438;52.044;8.716;2023-08-17T13:28:21;22.40;99.90
22544;DHT22;11438;52.044;8.716;2023-08-17T13:30:47;22.40;99.90
22544;DHT22;11438;52.044;8.716;2023-08-17T13:33:13;22.40;99.90
22544;DHT22;11438;52.044;8.716;2023-08-17T13:35:38;22.40;99.90
22544;DHT22;11438;52.044;8.716;2023-08-17T13:38:04;22.40;99.90
22544;DHT22;11438;52.044;8.716;2023-08-17T13:40:31;22.40;99.90
22544;DHT22;11438;52.044;8.716;2023-08-17T13:42:56;22.40;99.90
22544;DHT22;11438;52.044;8.716;2023-08-17T13:45:23;22.40;99.90
22544;DHT22;11438;52.044;8.716;2023-08-17T13:47:49;22.40;99.90
22544;DHT22;11438;52.044;8.716;2023-08-17T13:50:15;22.40;99.90
22544;DHT22;11438;52.044;8.716;2023-08-17T13:52:40;22.40;99.90
22544;DHT22;11438;52.044;8.716;2023-08-17T13:55:06;22.40;99.90
22544;DHT22;11438;52.044;8.716;2023-08-17T13:57:32;22.30;99.90
22544;DHT22;11438;52.044;8.716;2023-08-17T13:59:57;22.30;99.90
22544;DHT22;11438;52.044;8.716;2023-08-17T14:02:23;22.30;99.90
22544;DHT22;11438;52.044;8.716;2023-08-17T14:04:48;22.30;99.90
22544;DHT22;11438;52.044;8.716;2023-08-17T14:07:14;22.30;99.90
22544;DHT22;11438;52.044;8.716;2023-08-17T14:09:40;22.30;99.90
22544;DHT22;11438;52.044;8.716;2023-08-17T14:12:05;22.30;99.90
22544;DHT22;11438;52.044;8.716;2023-08-17T14:14:31;22.30;99.90
22544;DHT22;11438;52.044;8.716;2023-08-17T14:16:56;22.30;99.90
22544;DHT22;11438;52.044;8.716;2023-08-17T14:19:23;22.30;99.90
22544;DHT22;11438;52.044;8.716;2023-08-17T14:21:48;22.20;99.90
22544;DHT22;11438;52.044;8.716;2023-08-17T14:24:14;22.30;99.90
22544;DHT22;11438;52.044;8.716;2023-08-17T14:26:40;22.30;99.90
22544;DHT22;11438;52.044;8.716;2023-08-17T14:29:05;22.30;99.90
22544;DHT22;11438;52.044;8.716;2023-08-17T14:31:31;22.30;99.90
22544;DHT22;11438;52.044;8.716;2023-08-17T14:33:56;22.30;99.90
22544;DHT22;11438;52.044;8.716;2023-08-17T14:36:22;22.30;99.90
22544;DHT22;11438;52.044;8.716;2023-08-17T14:38:48;22.30;99.90
22544;DHT22;11438;52.044;8.716;2023-08-17T14:41:13;22.30;99.90
22544;DHT22;11438;52.044;8.716;2023-08-17T14:43:39;22.30;99.90
22544;DHT22;11438;52.044;8.716;2023-08-17T14:46:04;22.30;99.90
22544;DHT22;11438;52.044;8.716;2023-08-17T14:48:30;22.30;99.90
22544;DHT22;11438;52.044;8.716;2023-08-17T14:50:56;22.30;99.90
22544;DHT22;11438;52.044;8.716;2023-08-17T14:53:21;22.20;99.90
22544;DHT22;11438;52.044;8.716;2023-08-17T14:55:47;22.20;99.90
22544;DHT22;11438;52.044;8.716;2023-08-17T14:58:13;22.30;99.90
22544;DHT22;11438;52.044;8.716;2023-08-17T15:00:39;22.20;99.90
22544;DHT22;11438;52.044;8.716;2023-08-17T15:03:05;22.20;99.90
22544;DHT22;11438;52.044;8.716;2023-08-17T15:05:30;22.20;99.90
22544;DHT22;11438;52.044;8.716;2023-08-17T15:07:56;22.20;99.90
22544;DHT22;11438;52.044;8.716;2023-08-17T15:10:22;22.20;99.90
22544;DHT22;11438;52.044;8.716;2023-08-17T15:12:48;22.20;99.90
22544;DHT22;11438;52.044;8.716;2023-08-17T15:15:14;22.20;99.90
22544;DHT22;11438;52.044;8.716;2023-08-17T15:17:39;22.10;99.90
22544;DHT22;11438;52.044;8.716;2023-08-17T15:20:06;22.10;99.90
22544;DHT22;11438;52.044;8.716;2023-08-17T15:22:31;22.10;99.90
22544;DHT22;11438;52.044;8.716;2023-08-17T15:24:57;22.10;99.90
22544;DHT22;11438;52.044;8.716;2023-08-17T15:27:23;22.10;99.90